オウル の空港の天気 - METARとTAF

オウル空港 ( EFOU / OUL ) - フィンランド Oulunsalo
飛行場実況気象(Metar)
観測時間06/29 04:50 EEST (06/29 01:50 UTC)
風向・風速西 2m/s
視程10km以上
天気現象
少しの雲 雲底高度 1770m
気温10℃
湿度94%
気圧1012hPa
METAREFOU 290150Z AUTO 28003KT 9999 FEW058/// 10/09 Q1012
過去の天気等 Google飛行場航空写真 Wunderground天気予報

過去48時間のMETAR

飛行場予報(TAF)
発表時間: 6/29 02:33 EEST (6/28 23:33 UTC)
予報対象時間: 29日3時 EEST ~ 30日3時 EEST
風向・風速西北西 4m/s
視程10km以上
全天の8割程度の雲 雲底高度 1,070m
29日3時 EEST から 確率 30% で
視程2,000m
天気現象散在した霧
TAF EFOU 282333Z 2900/2924 30008KT 9999 BKN035
PROB30 2900/2903 2000 BCFG